Check out our new BloomSky Weather System.

Active alerts


No alerts


Thunder radar  blitzortung!


Rain radar more information rain snow radar


Visit our other weather sites:

Template documentation
and downloads

And another site



Weather Underground History page Text

Daily Summary for June 9, 2017 Units:  Metric    English   Both
« Previous Day
Next Day »
Daily Weekly Monthly Yearly Custom
  High: Low: Average:
Temperature: -17.8 °C 19.9 °C 21.9 °C
Dew Point: -17.8 °C 17.7 °C 18.6 °C
Humidity: Humidity % 65 % 81 %
Wind Speed: 0 km/h 0 km/h 0.8 km/h
Wind Gust: 0 km/h - -
Wind:- - South
Pressure: 0 hPa 1011.4 hPa -
Precipitation: 0 mm    
Historical Graphs
 
 
Tabular Data for June 9, 2017
Time Temperature Dew Point Pressure Wind Wind Speed Wind Gust Humidity Rainfall Rate (Hourly)
-17.8 °C -17.8 °C 0 hPa Calm     Humidity % 0 mm
00:04 23 °C 17.9 °C 1011.7 hPa Calm   1.6 km/h 73 % 0 mm
00:09 23.1 °C 18 °C 1011.7 hPa Calm   1.6 km/h 73 % 0 mm
00:14 23.1 °C 18 °C 1011.7 hPa Calm   1.6 km/h 73 % 0 mm
00:19 23.1 °C 18 °C 1011.7 hPa Calm   1.6 km/h 73 % 0 mm
00:24 23.1 °C 18 °C 1011.7 hPa Calm   1.6 km/h 73 % 0 mm
00:27 23.1 °C 18 °C 1011.7 hPa SE 1.6 km/h 1.6 km/h 73 % 0 mm
00:32 23.2 °C 18.1 °C 1011.7 hPa SSW 3.2 km/h 3.2 km/h 73 % 0 mm
00:37 23.2 °C 18.3 °C 1011.7 hPa South 1.6 km/h 4.8 km/h 74 % 0 mm
00:42 23.1 °C 18.2 °C 1011.7 hPa Calm   4.8 km/h 74 % 0 mm
00:47 23.1 °C 18.2 °C 1011.7 hPa Calm   4.8 km/h 74 % 0 mm
01:05 22.9 °C 18 °C 1011.7 hPa SSW 3.2 km/h -1607.7 km/h 74 % 0 mm
01:10 22.7 °C 18 °C 1011.7 hPa Calm   3.2 km/h 75 % 0 mm
01:15 22.6 °C 18.2 °C 1011.7 hPa Calm   3.2 km/h 76 % 0 mm
01:20 22.5 °C 18.1 °C 1011.7 hPa Calm     76 % 0 mm
01:25 22.4 °C 18 °C 1011.7 hPa Calm     76 % 0 mm
01:30 22.2 °C 18 °C 1011.7 hPa Calm     77 % 0 mm
01:35 22 °C 17.8 °C 1011.7 hPa Calm     77 % 0 mm
01:40 21.8 °C 17.8 °C 1011.7 hPa Calm     78 % 0 mm
01:45 21.7 °C 17.7 °C 1011.7 hPa Calm     78 % 0 mm
01:50 21.5 °C 17.7 °C 1011.7 hPa Calm     79 % 0 mm
01:55 21.5 °C 18.1 °C 1011.7 hPa Calm     81 % 0 mm
02:00 21.5 °C 18.1 °C 1011.7 hPa Calm     81 % 0 mm
02:05 21.6 °C 18.2 °C 1011.7 hPa Calm     81 % 0 mm
02:10 21.5 °C 18.1 °C 1011.7 hPa Calm     81 % 0 mm
02:15 21.4 °C 18 °C 1011.7 hPa Calm   3.2 km/h 81 % 0 mm
02:20 21.3 °C 18.1 °C 1011.7 hPa Calm   3.2 km/h 82 % 0 mm
02:25 21.3 °C 18.1 °C 1011.7 hPa Calm   3.2 km/h 82 % 0 mm
02:30 21.3 °C 18.1 °C 1011.7 hPa Calm     82 % 0 mm
02:35 21.2 °C 18 °C 1011.7 hPa Calm     82 % 0 mm
02:40 21.1 °C 18.1 °C 1011.7 hPa Calm     83 % 0 mm
02:45 21.1 °C 18.3 °C 1011.7 hPa Calm     84 % 0 mm
02:50 21 °C 18.2 °C 1011.7 hPa Calm     84 % 0 mm
02:55 20.9 °C 18.1 °C 1011.7 hPa Calm     84 % 0 mm
03:00 20.8 °C 18.2 °C 1011.4 hPa Calm     85 % 0 mm
03:05 20.8 °C 18.2 °C 1011.7 hPa Calm     85 % 0 mm
03:10 20.8 °C 18.2 °C 1011.4 hPa Calm     85 % 0 mm
03:15 20.6 °C 18 °C 1011.4 hPa Calm     85 % 0 mm
03:20 20.6 °C 18.2 °C 1011.4 hPa Calm     86 % 0 mm
03:25 20.5 °C 18.3 °C 1011.4 hPa Calm     87 % 0 mm
03:30 20.5 °C 18.3 °C 1011.4 hPa Calm     87 % 0 mm
03:35 20.4 °C 18 °C 1011.4 hPa Calm     86 % 0 mm
03:40 20.4 °C 18.2 °C 1011.4 hPa Calm     87 % 0 mm
03:45 20.3 °C 18.1 °C 1011.4 hPa Calm     87 % 0 mm
03:50 20.3 °C 18.1 °C 1011.4 hPa Calm     87 % 0 mm
03:52 20.3 °C 18.2 °C 1011.4 hPa Calm     88 % 0 mm
03:57 20.3 °C 18.1 °C 1011.4 hPa Calm     87 % 0 mm
04:02 20.3 °C 18.2 °C 1011.4 hPa Calm     88 % 0 mm
04:07 20.3 °C 18.2 °C 1011.4 hPa Calm     88 % 0 mm
04:12 20.2 °C 18.1 °C 1011.4 hPa Calm     88 % 0 mm
04:17 20.2 °C 18.1 °C 1011.4 hPa Calm     88 % 0 mm
04:22 20.2 °C 18.1 °C 1011.4 hPa Calm     88 % 0 mm
04:27 20.1 °C 18 °C 1011.4 hPa Calm     88 % 0 mm
04:32 20.1 °C 18 °C 1011.4 hPa Calm     88 % 0 mm
04:37 20.1 °C 18 °C 1011.7 hPa Calm     88 % 0 mm
04:42 20.1 °C 18.2 °C 1011.7 hPa Calm     89 % 0 mm
04:47 20.1 °C 18.2 °C 1011.7 hPa Calm     89 % 0 mm
04:52 19.9 °C 17.9 °C 1011.7 hPa Calm     88 % 0 mm
04:57 19.9 °C 18 °C 1011.7 hPa Calm     89 % 0 mm
05:02 19.9 °C 18 °C 1011.7 hPa Calm     89 % 0 mm
05:07 20 °C 18.3 °C 1011.7 hPa Calm     90 % 0 mm
05:12 20.2 °C 18.3 °C 1011.7 hPa Calm     89 % 0 mm
05:17 20.2 °C 18.3 °C 1011.7 hPa Calm     89 % 0 mm
05:22 20.2 °C 18.3 °C 1011.7 hPa Calm     89 % 0 mm
05:27 20.2 °C 18.3 °C 1011.7 hPa Calm     89 % 0 mm
05:32 20.3 °C 18.4 °C 1012.1 hPa Calm     89 % 0 mm
05:37 20.3 °C 18.4 °C 1011.7 hPa Calm     89 % 0 mm
05:42 20.3 °C 18.4 °C 1011.7 hPa Calm     89 % 0 mm
05:47 20.3 °C 18.4 °C 1011.7 hPa Calm     89 % 0 mm
05:52 20.3 °C 18.4 °C 1012.1 hPa Calm     89 % 0 mm
05:57 20.3 °C 18.4 °C 1012.1 hPa Calm     89 % 0 mm
06:02 20.4 °C 18.5 °C 1012.1 hPa Calm     89 % 0 mm
06:07 20.4 °C 18.7 °C 1012.1 hPa Calm     90 % 0 mm
06:12 20.4 °C 18.7 °C 1012.1 hPa Calm     90 % 0 mm
06:17 20.4 °C 18.7 °C 1012.1 hPa Calm     90 % 0 mm
06:22 20.4 °C 18.7 °C 1012.1 hPa Calm     90 % 0 mm
06:27 20.4 °C 18.5 °C 1012.1 hPa Calm     89 % 0 mm
06:32 20.3 °C 18.4 °C 1012.1 hPa Calm     89 % 0 mm
06:37 20.3 °C 18.6 °C 1012.1 hPa Calm     90 % 0 mm
06:42 20.4 °C 18.7 °C 1012.1 hPa Calm     90 % 0 mm
06:47 20.4 °C 18.7 °C 1012.1 hPa Calm     90 % 0 mm
06:52 20.5 °C 18.8 °C 1012.1 hPa Calm     90 % 0 mm
06:57 20.6 °C 18.9 °C 1011.7 hPa Calm     90 % 0 mm
07:02 20.7 °C 19 °C 1011.7 hPa Calm     90 % 0 mm
07:07 20.8 °C 19.1 °C 1012.1 hPa Calm     90 % 0 mm
07:12 21 °C 19.3 °C 1012.1 hPa Calm   1.6 km/h 90 % 0 mm
07:18 21.1 °C 19.2 °C 1012.1 hPa Calm   1.6 km/h 89 % 0 mm
07:23 21.3 °C 19.4 °C 1012.1 hPa Calm   1.6 km/h 89 % 0 mm
07:28 21.6 °C 19.7 °C 1012.1 hPa Calm     89 % 0 mm
07:29 21.6 °C 19.7 °C 1012.1 hPa Calm     89 % 0 mm
07:34 22.1 °C 20 °C 1012.1 hPa Calm     88 % 0 mm
07:39 22.5 °C 20.2 °C 1012.1 hPa Calm   1.6 km/h 87 % 0 mm
07:44 22.9 °C 20.2 °C 1012.4 hPa Calm   1.6 km/h 85 % 0 mm
07:49 23.3 °C 20.4 °C 1012.4 hPa Calm   1.6 km/h 84 % 0 mm
07:54 23.7 °C 20.6 °C 1012.4 hPa Calm   1.6 km/h 83 % 0 mm
07:59 24.1 °C 20.6 °C 1012.4 hPa Calm   1.6 km/h 81 % 0 mm
08:04 24.2 °C 20.5 °C 1012.4 hPa Calm   1.6 km/h 80 % 0 mm
08:09 24.4 °C 20.5 °C 1012.4 hPa Calm   4.8 km/h 79 % 0 mm
08:14 24.6 °C 20.7 °C 1012.4 hPa Calm   4.8 km/h 79 % 0 mm
08:19 24.8 °C 20.7 °C 1012.4 hPa Calm   4.8 km/h 78 % 0 mm
08:24 24.9 °C 20.6 °C 1012.4 hPa Calm   1.6 km/h 77 % 0 mm
08:29 25.3 °C 21 °C 1012.4 hPa SE 1.6 km/h 4.8 km/h 77 % 0 mm
08:34 25.3 °C 20.5 °C 1012.8 hPa Calm   6.4 km/h 75 % 0 mm
08:39 25.4 °C 20.4 °C 1012.8 hPa SSE 4.8 km/h 6.4 km/h 74 % 0 mm
08:44 25.6 °C 20.8 °C 1012.8 hPa SE 1.6 km/h 8 km/h 75 % 0 mm
08:49 25.5 °C 20.3 °C 1012.8 hPa SE 3.2 km/h 8 km/h 73 % 0 mm
08:54 25.6 °C 20.6 °C 1012.8 hPa Calm   8 km/h 74 % 0 mm
08:59 25.8 °C 21 °C 1012.8 hPa South 1.6 km/h 8 km/h 75 % 0 mm
09:04 25.8 °C 20.8 °C 1012.8 hPa South 4.8 km/h 8 km/h 74 % 0 mm
09:09 25.8 °C 20.8 °C 1012.8 hPa SSW 1.6 km/h 6.4 km/h 74 % 0 mm
09:14 25.9 °C 21.1 °C 1012.8 hPa Calm   6.4 km/h 75 % 0 mm
09:19 26.1 °C 20.7 °C 1012.8 hPa ESE 4.8 km/h 8 km/h 72 % 0 mm
09:24 26.2 °C 20.5 °C 1012.8 hPa SSE 3.2 km/h 9.7 km/h 71 % 0 mm
09:29 26.6 °C 21.1 °C 1012.8 hPa SE 4.8 km/h 9.7 km/h 72 % 0 mm
09:34 26.7 °C 20.5 °C 1013.1 hPa SSW 6.4 km/h 9.7 km/h 69 % 0 mm
09:39 26.8 °C 20.6 °C 1012.8 hPa SSW 6.4 km/h 12.9 km/h 69 % 0 mm
09:45 27.2 °C 20.8 °C 1012.8 hPa SW 3.2 km/h 12.9 km/h 68 % 0 mm
09:50 27.3 °C 20.6 °C 1012.8 hPa SSE 6.4 km/h 12.9 km/h 67 % 0 mm
09:55 27.4 °C 20.7 °C 1012.8 hPa ESE 8 km/h 11.3 km/h 67 % 0 mm
10:00 27.4 °C 20.2 °C 1012.8 hPa SSW 9.7 km/h 12.9 km/h 65 % 0 mm
10:05 27.5 °C 20.6 °C 1012.8 hPa SSW 3.2 km/h 12.9 km/h 66 % 0 mm
10:10 27.6 °C 20.7 °C 1012.8 hPa SSW 8 km/h 14.5 km/h 66 % 0 mm
Spring, Texas: Villages of Bridgestone
Compliments of Weather Underground - 2 mb

Script developed by  Jim McMurry - jmcmurry@mwt.net Adapted for the template by  Wim van der Kuil - Leuven-Template.eu

You find our weather info also at:

UK Metoffice

WeatherCloud

Weather Underground

Mid-South Weather Network

AWEKAS

Citizen Weather Observer Program (CWOP)

HAMweather, WeatherForYou, PWS Weather

Equipment we use:

Weather-station
Davis Vantage Vue

Weather-program
Meteohub

Weather-server
Debian 7.9 x86 (Guest)

Provider
DreamHost

Davis Vantage Vue

Meteohub

Debian 7.9 x86 (Guest)

DreamHost